createdAt,value
2023-01-01T00:00:40.356Z,100826.44
2023-01-01T00:03:10.487Z,100826.59
2023-01-01T00:05:40.437Z,100844.69
2023-01-01T00:08:07.253Z,100840.25
2023-01-01T00:10:33.996Z,100849.97
2023-01-01T00:13:00.743Z,100856.09
2023-01-01T00:15:39.382Z,100853.09
2023-01-01T00:18:06.015Z,100853.94
2023-01-01T00:20:35.430Z,100860.59
2023-01-01T00:23:03.190Z,100857.34
2023-01-01T00:25:32.704Z,100856.78
2023-01-01T00:27:59.402Z,100857.66
2023-01-01T00:30:26.076Z,100863.00
2023-01-01T00:32:55.565Z,100867.94
2023-01-01T00:35:26.483Z,100858.88
2023-01-01T00:37:54.159Z,100869.28
2023-01-01T00:40:21.016Z,100867.66
2023-01-01T00:42:50.325Z,100867.06
2023-01-01T00:45:22.393Z,100867.75
2023-01-01T00:47:54.893Z,100871.31
2023-01-01T00:50:22.777Z,100869.09
2023-01-01T00:52:49.957Z,100859.66
2023-01-01T00:55:17.277Z,100866.50
2023-01-01T00:57:52.847Z,100874.06
2023-01-01T01:00:22.089Z,100869.63
2023-01-01T01:02:48.766Z,100864.34
2023-01-01T01:05:15.616Z,100872.88
2023-01-01T01:07:42.318Z,100876.91
2023-01-01T01:10:09.783Z,100863.22
2023-01-01T01:12:36.566Z,100875.34
2023-01-01T01:15:04.406Z,100876.50
2023-01-01T01:17:31.134Z,100871.56
2023-01-01T01:20:05.254Z,100879.63
2023-01-01T01:22:31.893Z,100876.75
2023-01-01T01:25:01.795Z,100878.00
2023-01-01T01:27:28.436Z,100867.84
2023-01-01T01:29:57.116Z,100879.97
2023-01-01T01:32:23.800Z,100878.72
2023-01-01T01:34:56.595Z,100888.28
2023-01-01T01:37:23.265Z,100881.78
2023-01-01T01:39:53.825Z,100884.00
2023-01-01T01:42:25.340Z,100881.00
2023-01-01T01:45:05.955Z,100877.72
2023-01-01T01:47:48.772Z,100880.50
2023-01-01T01:50:30.049Z,100889.47
2023-01-01T01:53:20.220Z,100888.16
2023-01-01T01:55:51.158Z,100887.31
2023-01-01T01:58:18.553Z,100885.16
2023-01-01T02:00:45.251Z,100881.88
2023-01-01T02:03:46.591Z,100884.78
2023-01-01T02:06:13.692Z,100878.50
2023-01-01T02:08:40.295Z,100874.44
2023-01-01T02:11:07.029Z,100894.00
2023-01-01T02:13:48.270Z,100900.00
2023-01-01T02:16:25.904Z,100889.16
2023-01-01T02:19:18.461Z,100892.28
2023-01-01T02:22:02.680Z,100888.03
2023-01-01T02:24:41.222Z,100898.84
2023-01-01T02:27:37.207Z,100877.72
2023-01-01T02:30:07.823Z,100892.28
2023-01-01T02:32:43.443Z,100896.34
2023-01-01T02:35:36.242Z,100892.78
2023-01-01T02:38:22.038Z,100891.66
2023-01-01T02:40:56.041Z,100889.44
2023-01-01T02:43:25.064Z,100882.19
2023-01-01T02:45:54.486Z,100887.38
2023-01-01T02:48:44.388Z,100885.00
2023-01-01T02:51:22.872Z,100884.06
2023-01-01T02:54:05.342Z,100883.59
2023-01-01T02:56:56.824Z,100887.63
2023-01-01T02:59:53.178Z,100888.34
2023-01-01T03:02:50.368Z,100877.22
2023-01-01T03:05:30.183Z,100884.06
2023-01-01T03:08:19.275Z,100881.44
2023-01-01T03:11:03.553Z,100877.41
2023-01-01T03:13:47.087Z,100874.00
2023-01-01T03:16:18.450Z,100876.16
2023-01-01T03:19:11.008Z,100884.56
2023-01-01T03:21:58.259Z,100874.66
2023-01-01T03:24:45.972Z,100895.34
2023-01-01T03:27:44.149Z,100901.47
2023-01-01T03:30:13.371Z,100900.00
2023-01-01T03:33:00.487Z,100903.66
2023-01-01T03:35:33.732Z,100898.97
2023-01-01T03:38:06.662Z,100904.25
2023-01-01T03:40:37.284Z,100910.22
2023-01-01T03:43:11.937Z,100914.19
2023-01-01T03:45:50.465Z,100896.56
2023-01-01T03:48:17.836Z,100898.50
2023-01-01T03:50:49.271Z,100902.50
2023-01-01T03:53:21.402Z,100894.31
2023-01-01T03:56:03.171Z,100890.09
2023-01-01T03:58:46.413Z,100904.22
2023-01-01T04:01:22.769Z,100920.31
2023-01-01T04:03:50.914Z,100926.06
2023-01-01T04:06:20.551Z,100917.06
2023-01-01T04:08:49.194Z,100908.78
2023-01-01T04:11:40.207Z,100923.22
2023-01-01T04:14:07.039Z,100922.81
2023-01-01T04:16:33.714Z,100930.56
2023-01-01T04:19:00.506Z,100948.94
2023-01-01T04:21:27.224Z,100944.25
2023-01-01T04:23:53.841Z,100939.31
2023-01-01T04:26:20.479Z,100953.03
2023-01-01T04:28:47.119Z,100957.00
2023-01-01T04:31:13.729Z,100956.00
2023-01-01T04:33:40.669Z,100948.59
2023-01-01T04:36:12.685Z,100962.78
2023-01-01T04:38:42.209Z,100954.59
2023-01-01T04:41:17.650Z,100958.03
2023-01-01T04:43:50.901Z,100958.38
2023-01-01T04:46:27.289Z,100963.81
2023-01-01T04:49:02.844Z,100954.59
2023-01-01T04:51:32.133Z,100961.09
2023-01-01T04:53:59.678Z,100959.59
2023-01-01T04:56:26.323Z,100964.84
2023-01-01T04:58:53.060Z,100963.44
2023-01-01T05:01:27.947Z,100964.34
2023-01-01T05:03:58.090Z,100974.84
2023-01-01T05:06:25.765Z,100969.91
2023-01-01T05:08:57.448Z,100982.38
2023-01-01T05:11:27.155Z,100977.75
2023-01-01T05:13:56.279Z,100973.88
2023-01-01T05:16:28.902Z,100974.06
2023-01-01T05:18:56.355Z,100972.28
2023-01-01T05:21:26.434Z,100975.78
2023-01-01T05:24:01.596Z,100971.06
2023-01-01T05:26:31.797Z,100968.28
2023-01-01T05:28:59.709Z,100974.16
2023-01-01T05:31:28.919Z,100978.66
2023-01-01T05:33:55.952Z,100980.41
2023-01-01T05:36:25.558Z,100988.38
2023-01-01T05:38:53.233Z,100981.06
2023-01-01T05:41:21.414Z,100981.34
2023-01-01T05:43:48.548Z,100986.38
2023-01-01T05:46:21.246Z,100987.78
2023-01-01T05:48:48.427Z,100985.28
2023-01-01T05:51:18.456Z,100992.94
2023-01-01T05:53:45.784Z,100984.47
2023-01-01T05:56:13.289Z,100986.38
2023-01-01T05:58:40.284Z,100981.91
2023-01-01T06:01:19.670Z,100986.00
2023-01-01T06:03:53.863Z,100981.59
2023-01-01T06:06:29.001Z,100992.50
2023-01-01T06:09:01.669Z,100987.22
2023-01-01T06:11:29.703Z,100988.81
2023-01-01T06:14:01.120Z,100993.09
2023-01-01T06:16:29.409Z,100991.88
2023-01-01T06:18:56.307Z,100994.25
2023-01-01T06:21:28.243Z,101000.03
2023-01-01T06:23:59.774Z,100988.44
2023-01-01T06:26:33.672Z,100993.59
2023-01-01T06:29:01.957Z,100997.66
2023-01-01T06:31:33.006Z,101002.34
2023-01-01T06:34:03.649Z,101016.81
2023-01-01T06:36:30.289Z,101012.41
2023-01-01T06:38:58.788Z,101022.50
2023-01-01T06:41:27.261Z,101026.38
2023-01-01T06:43:56.367Z,101037.75
2023-01-01T06:46:24.476Z,101030.13
2023-01-01T06:48:55.279Z,101027.63
2023-01-01T06:51:26.681Z,101038.78
2023-01-01T06:53:56.947Z,101037.75
2023-01-01T06:56:24.104Z,101051.22
2023-01-01T06:58:50.720Z,101037.00
2023-01-01T07:01:26.016Z,101045.94
2023-01-01T07:04:01.077Z,101049.84
2023-01-01T07:06:32.338Z,101056.97
2023-01-01T07:08:59.289Z,101049.97
2023-01-01T07:11:29.589Z,101053.13
2023-01-01T07:13:56.558Z,101047.28
2023-01-01T07:16:24.039Z,101057.13
2023-01-01T07:18:51.580Z,101060.53
2023-01-01T07:21:30.407Z,101058.84
2023-01-01T07:23:58.652Z,101064.13
2023-01-01T07:26:29.504Z,101076.34
2023-01-01T07:29:02.744Z,101075.09
2023-01-01T07:31:32.813Z,101073.47
2023-01-01T07:33:59.471Z,101079.41
2023-01-01T07:36:26.126Z,101075.66
2023-01-01T07:38:52.724Z,101095.22
2023-01-01T07:41:23.299Z,101082.09
2023-01-01T07:43:49.972Z,101083.28
2023-01-01T07:46:19.017Z,101093.13
2023-01-01T07:48:46.372Z,101087.56
2023-01-01T07:51:16.679Z,101085.00
2023-01-01T07:53:43.365Z,101094.75
2023-01-01T07:56:10.208Z,101101.75
2023-01-01T07:58:48.534Z,101102.47
2023-01-01T08:01:15.359Z,101109.72
2023-01-01T08:03:42.358Z,101122.59
2023-01-01T08:06:15.100Z,101119.22
2023-01-01T08:08:44.400Z,101120.16
2023-01-01T08:11:13.890Z,101124.50
2023-01-01T08:13:40.497Z,101112.22
2023-01-01T08:16:07.536Z,101114.88
2023-01-01T08:18:34.833Z,101123.72
2023-01-01T08:21:01.441Z,101127.00
2023-01-01T08:23:28.799Z,101127.13
2023-01-01T08:25:59.353Z,101125.72
2023-01-01T08:28:25.999Z,101118.56
2023-01-01T08:30:52.663Z,101130.28
2023-01-01T08:33:19.262Z,101127.50
2023-01-01T08:35:52.001Z,101131.53
2023-01-01T08:38:20.673Z,101134.88
2023-01-01T08:40:47.353Z,101142.00
2023-01-01T08:43:13.957Z,101148.88
2023-01-01T08:45:40.626Z,101142.53
2023-01-01T08:48:10.861Z,101155.88
2023-01-01T08:50:37.527Z,101140.88
2023-01-01T08:53:04.491Z,101146.44
2023-01-01T08:55:31.527Z,101157.19
2023-01-01T08:57:58.233Z,101159.63
2023-01-01T09:00:27.725Z,101155.84
2023-01-01T09:02:57.527Z,101165.34
2023-01-01T09:05:27.068Z,101154.78
2023-01-01T09:07:53.674Z,101163.63
2023-01-01T09:10:20.314Z,101161.78
2023-01-01T09:12:50.215Z,101171.69
2023-01-01T09:15:17.323Z,101173.25
2023-01-01T09:17:44.440Z,101186.47
2023-01-01T09:20:11.294Z,101177.81
2023-01-01T09:22:37.919Z,101180.44
2023-01-01T09:25:04.803Z,101192.78
2023-01-01T09:27:31.433Z,101196.41
2023-01-01T09:30:00.548Z,101195.31
2023-01-01T09:32:27.308Z,101211.16
2023-01-01T09:34:53.991Z,101212.88
2023-01-01T09:37:20.599Z,101211.94
2023-01-01T09:39:47.221Z,101202.31
2023-01-01T09:42:36.285Z,101216.78
2023-01-01T09:45:21.762Z,101210.53
2023-01-01T09:47:57.336Z,101196.59
2023-01-01T09:50:35.482Z,101196.47
2023-01-01T09:53:11.335Z,101198.91
2023-01-01T09:55:43.590Z,101205.09
2023-01-01T09:58:14.535Z,101211.97
2023-01-01T10:00:49.988Z,101207.44
2023-01-01T10:03:28.821Z,101210.03
2023-01-01T10:06:14.189Z,101213.75
2023-01-01T10:09:11.430Z,101212.66
2023-01-01T10:11:53.031Z,101225.47
2023-01-01T10:14:34.531Z,101224.63
2023-01-01T10:17:08.524Z,101225.31
2023-01-01T10:19:41.674Z,101234.03
2023-01-01T10:22:17.611Z,101230.59
2023-01-01T10:25:01.863Z,101240.16
2023-01-01T10:27:28.415Z,101236.09
2023-01-01T10:30:03.410Z,101244.19
2023-01-01T10:32:34.004Z,101242.75
2023-01-01T10:35:02.853Z,101242.47
2023-01-01T10:37:36.973Z,101235.16
2023-01-01T10:40:15.635Z,101252.47
2023-01-01T10:42:42.277Z,101248.19
2023-01-01T10:45:15.209Z,101254.81
2023-01-01T10:48:28.006Z,101263.59
2023-01-01T10:50:57.345Z,101269.81
2023-01-01T10:53:31.446Z,101265.91
2023-01-01T10:56:05.713Z,101266.03
2023-01-01T10:58:45.560Z,101257.38
2023-01-01T11:01:18.444Z,101238.38
2023-01-01T11:03:59.328Z,101247.16
2023-01-01T11:06:44.296Z,101246.28
2023-01-01T11:09:27.464Z,101243.03
2023-01-01T11:12:09.360Z,101239.47
2023-01-01T11:14:43.120Z,101245.94
2023-01-01T11:17:10.693Z,101244.09
2023-01-01T11:19:43.005Z,101256.31
2023-01-01T11:22:40.119Z,101270.75
2023-01-01T11:25:30.192Z,101271.94
2023-01-01T11:28:15.707Z,101272.97
2023-01-01T11:30:57.663Z,101290.75
2023-01-01T11:33:25.744Z,101292.03
2023-01-01T11:35:55.422Z,101300.38
2023-01-01T11:38:29.515Z,101303.31
2023-01-01T11:41:07.544Z,101302.09
2023-01-01T11:43:54.660Z,101292.31
2023-01-01T11:46:24.952Z,101294.09
2023-01-01T11:48:54.399Z,101287.69
2023-01-01T11:51:36.025Z,101282.03
2023-01-01T11:54:26.676Z,101275.81
2023-01-01T11:57:01.026Z,101263.53
2023-01-01T11:59:37.197Z,101276.59
2023-01-01T12:02:05.396Z,101281.66
2023-01-01T12:04:40.609Z,101281.81
2023-01-01T12:07:10.963Z,101291.53
2023-01-01T12:09:48.479Z,101283.47
2023-01-01T12:12:32.529Z,101288.59
2023-01-01T12:15:41.482Z,101299.34
2023-01-01T12:18:31.601Z,101296.81
2023-01-01T12:21:08.665Z,101301.03
2023-01-01T12:23:36.298Z,101298.81
2023-01-01T12:26:11.764Z,101302.44
2023-01-01T12:29:02.889Z,101300.03
2023-01-01T12:31:58.902Z,101298.38
2023-01-01T12:34:36.499Z,101308.53
2023-01-01T12:37:40.761Z,101308.59
2023-01-01T12:40:49.141Z,101305.22
2023-01-01T12:43:43.327Z,101301.66
2023-01-01T12:46:24.116Z,101299.38
2023-01-01T12:48:56.919Z,101287.94
2023-01-01T12:51:52.850Z,101280.44
2023-01-01T12:54:26.230Z,101281.03
2023-01-01T12:57:15.357Z,101277.59
2023-01-01T12:59:47.516Z,101278.00
2023-01-01T13:02:37.179Z,101271.81
2023-01-01T13:05:15.279Z,101275.16
2023-01-01T13:07:47.289Z,101286.16
2023-01-01T13:10:23.267Z,101292.56
2023-01-01T13:12:53.112Z,101286.31
2023-01-01T13:15:39.680Z,101300.44
2023-01-01T13:18:19.118Z,101297.19
2023-01-01T13:20:54.105Z,101301.56
2023-01-01T13:23:34.700Z,101296.75
2023-01-01T13:26:31.290Z,101307.50
2023-01-01T13:29:20.888Z,101305.16
2023-01-01T13:31:47.474Z,101320.13
2023-01-01T13:34:32.811Z,101330.63
2023-01-01T13:37:12.668Z,101333.00
2023-01-01T13:40:02.193Z,101335.97
2023-01-01T13:43:06.479Z,101330.75
2023-01-01T13:49:01.858Z,101347.19
2023-01-01T13:52:07.089Z,101359.59
2023-01-01T13:54:56.261Z,101361.63
2023-01-01T13:57:41.736Z,101382.66
2023-01-01T14:00:34.625Z,101378.25
2023-01-01T14:03:08.779Z,101383.59
2023-01-01T14:05:41.735Z,101381.06
2023-01-01T14:08:31.256Z,101379.72
2023-01-01T14:11:02.329Z,101388.50
2023-01-01T14:13:32.937Z,101402.63
2023-01-01T14:16:07.497Z,101393.53
2023-01-01T14:18:42.907Z,101391.63
2023-01-01T14:21:14.880Z,101394.44
2023-01-01T14:23:54.749Z,101385.81
2023-01-01T14:26:29.137Z,101393.78
2023-01-01T14:29:06.549Z,101398.56
2023-01-01T14:31:39.345Z,101393.22
2023-01-01T14:34:17.707Z,101393.28
2023-01-01T14:36:54.464Z,101389.16
2023-01-01T14:39:36.272Z,101395.19
2023-01-01T14:42:06.750Z,101395.34
2023-01-01T14:44:38.089Z,101399.66
2023-01-01T14:47:16.942Z,101406.06
2023-01-01T14:49:45.366Z,101409.00
2023-01-01T14:52:24.409Z,101404.59
2023-01-01T14:54:52.480Z,101396.94
2023-01-01T14:57:32.111Z,101410.13
2023-01-01T14:59:59.042Z,101410.25
2023-01-01T15:02:37.428Z,101421.81
2023-01-01T15:05:22.775Z,101421.75
2023-01-01T15:07:57.782Z,101424.72
2023-01-01T15:10:29.248Z,101419.88
2023-01-01T15:12:57.422Z,101416.81
2023-01-01T15:15:44.840Z,101427.59
2023-01-01T15:18:46.174Z,101438.50
2023-01-01T15:21:31.866Z,101440.91
2023-01-01T15:24:14.060Z,101440.16
2023-01-01T15:27:01.017Z,101438.50
2023-01-01T15:29:32.556Z,101444.09
2023-01-01T15:32:01.959Z,101453.06
2023-01-01T15:34:44.877Z,101454.66
2023-01-01T15:37:34.762Z,101453.06
2023-01-01T15:40:21.285Z,101470.69
2023-01-01T15:43:12.489Z,101465.78
2023-01-01T15:45:41.580Z,101473.88
2023-01-01T15:48:11.280Z,101466.19
2023-01-01T15:50:50.144Z,101465.56
2023-01-01T15:53:29.220Z,101472.66
2023-01-01T15:56:02.656Z,101474.75
2023-01-01T15:58:41.582Z,101474.13
2023-01-01T16:01:16.475Z,101484.09
2023-01-01T16:03:46.995Z,101476.59
2023-01-01T16:06:21.679Z,101478.78
2023-01-01T16:08:57.321Z,101484.13
2023-01-01T16:11:24.046Z,101488.06
2023-01-01T16:13:50.723Z,101483.03
2023-01-01T16:16:28.396Z,101480.53
2023-01-01T16:18:56.501Z,101487.81
2023-01-01T16:21:26.782Z,101491.59
2023-01-01T16:24:01.949Z,101499.69
2023-01-01T16:26:28.568Z,101489.38
2023-01-01T16:28:55.162Z,101480.03
2023-01-01T16:31:28.775Z,101474.09
2023-01-01T16:33:56.844Z,101475.13
2023-01-01T16:36:23.872Z,101479.69
2023-01-01T16:38:53.809Z,101488.75
2023-01-01T16:41:20.474Z,101491.63
2023-01-01T16:43:48.074Z,101496.28
2023-01-01T16:46:18.178Z,101494.66
2023-01-01T16:48:45.091Z,101487.59
2023-01-01T16:51:24.323Z,101482.28
2023-01-01T16:53:53.668Z,101488.97
2023-01-01T16:56:20.363Z,101497.56
2023-01-01T16:58:50.021Z,101494.09
2023-01-01T17:01:20.985Z,101497.53
2023-01-01T17:03:50.747Z,101503.97
2023-01-01T17:06:20.254Z,101514.25
2023-01-01T17:08:47.425Z,101518.72
2023-01-01T17:11:22.593Z,101514.31
2023-01-01T17:13:49.591Z,101518.72
2023-01-01T17:16:25.235Z,101516.75
2023-01-01T17:21:41.044Z,101524.81
2023-01-01T17:24:08.043Z,101521.31
2023-01-01T17:26:37.508Z,101522.38
2023-01-01T17:29:05.140Z,101519.66
2023-01-01T17:31:33.016Z,101526.97
2023-01-01T17:33:59.678Z,101523.69
2023-01-01T17:36:29.464Z,101526.44
2023-01-01T17:38:57.070Z,101516.75
2023-01-01T17:41:24.398Z,101527.13
2023-01-01T17:43:51.382Z,101526.41
2023-01-01T17:46:36.365Z,101532.53
2023-01-01T17:49:03.908Z,101527.50
2023-01-01T17:51:31.243Z,101518.31
2023-01-01T17:53:58.138Z,101530.16
2023-01-01T17:56:25.172Z,101533.97
2023-01-01T17:58:53.764Z,101542.94
2023-01-01T18:01:23.414Z,101532.84
2023-01-01T18:03:55.115Z,101535.00
2023-01-01T18:06:24.972Z,101537.94
2023-01-01T18:08:56.632Z,101535.59
2023-01-01T18:11:24.190Z,101525.50
2023-01-01T18:13:50.828Z,101533.56
2023-01-01T18:16:17.578Z,101522.28
2023-01-01T18:18:44.272Z,101528.56
2023-01-01T18:21:23.889Z,101539.34
2023-01-01T18:23:52.201Z,101535.28
2023-01-01T18:26:20.006Z,101537.25
2023-01-01T18:28:54.980Z,101544.41
2023-01-01T18:31:23.345Z,101547.16
2023-01-01T18:33:52.255Z,101542.91
2023-01-01T18:36:29.921Z,101534.31
2023-01-01T18:39:16.922Z,101536.19
2023-01-01T18:41:52.414Z,101541.63
2023-01-01T18:44:20.928Z,101541.75
2023-01-01T18:47:14.588Z,101540.97
2023-01-01T18:49:49.332Z,101543.69
2023-01-01T18:52:28.609Z,101537.59
2023-01-01T18:55:10.418Z,101538.44
2023-01-01T18:57:41.199Z,101550.69
2023-01-01T19:00:31.366Z,101553.34
2023-01-01T19:03:02.493Z,101548.19
2023-01-01T19:05:34.407Z,101562.16
2023-01-01T19:08:07.162Z,101563.00
2023-01-01T19:10:36.023Z,101556.81
2023-01-01T19:13:32.389Z,101551.53
2023-01-01T19:16:11.842Z,101555.81
2023-01-01T19:18:47.772Z,101562.63
2023-01-01T19:21:21.111Z,101561.63
2023-01-01T19:23:58.822Z,101560.56
2023-01-01T19:26:34.007Z,101562.97
2023-01-01T19:29:10.060Z,101562.78
2023-01-01T19:31:36.709Z,101562.44
2023-01-01T19:34:03.361Z,101556.88
2023-01-01T19:36:30.324Z,101561.63
2023-01-01T19:38:59.851Z,101553.22
2023-01-01T19:41:26.734Z,101545.50
2023-01-01T19:43:53.343Z,101541.72
2023-01-01T19:46:26.122Z,101542.81
2023-01-01T19:48:55.582Z,101542.06
2023-01-01T19:51:25.644Z,101544.78
2023-01-01T19:53:56.184Z,101539.63
2023-01-01T19:56:23.368Z,101533.31
2023-01-01T19:58:53.130Z,101542.16
2023-01-01T20:01:20.280Z,101531.69
2023-01-01T20:03:56.528Z,101535.16
2023-01-01T20:06:24.630Z,101535.13
2023-01-01T20:08:51.332Z,101539.38
2023-01-01T20:11:17.857Z,101530.63
2023-01-01T20:13:46.962Z,101532.31
2023-01-01T20:16:14.772Z,101521.84
2023-01-01T20:18:41.665Z,101525.19
2023-01-01T20:21:29.918Z,101523.31
2023-01-01T20:23:57.086Z,101521.22
2023-01-01T20:26:25.827Z,101524.78
2023-01-01T20:29:11.445Z,101516.22
2023-01-01T20:31:38.417Z,101511.00
2023-01-01T20:34:10.138Z,101507.19
2023-01-01T20:36:55.461Z,101506.47
2023-01-01T20:39:22.859Z,101508.88
2023-01-01T20:41:50.135Z,101500.91
2023-01-01T20:44:17.102Z,101501.78
2023-01-01T20:46:45.961Z,101502.69
2023-01-01T20:49:12.829Z,101503.50
2023-01-01T20:51:39.495Z,101493.13
2023-01-01T20:54:06.317Z,101495.19
2023-01-01T20:56:37.343Z,101482.00
2023-01-01T20:59:17.922Z,101482.16
2023-01-01T21:01:51.336Z,101484.09
2023-01-01T21:04:20.403Z,101481.63
2023-01-01T21:06:47.851Z,101484.41
2023-01-01T21:09:14.511Z,101480.94
2023-01-01T21:11:46.971Z,101496.50
2023-01-01T21:14:13.827Z,101485.97
2023-01-01T21:16:44.587Z,101478.09
2023-01-01T21:19:11.621Z,101477.84
2023-01-01T21:21:59.284Z,101481.28
2023-01-01T21:24:39.545Z,101482.09
2023-01-01T21:27:06.163Z,101476.03
2023-01-01T21:29:33.594Z,101466.44
2023-01-01T21:32:21.264Z,101477.03
2023-01-01T21:34:50.420Z,101471.88
2023-01-01T21:37:52.688Z,101468.41
2023-01-01T21:40:22.356Z,101480.75
2023-01-01T21:43:27.089Z,101490.44
2023-01-01T21:45:56.718Z,101491.44
2023-01-01T21:48:23.392Z,101492.13
2023-01-01T21:50:52.117Z,101485.78
2023-01-01T21:53:30.180Z,101490.59
2023-01-01T21:55:57.838Z,101490.53
2023-01-01T21:58:48.588Z,101489.31
2023-01-01T22:01:29.453Z,101483.16
2023-01-01T22:04:02.523Z,101481.25
2023-01-01T22:06:51.545Z,101489.19
2023-01-01T22:09:31.776Z,101491.63
2023-01-01T22:12:13.508Z,101488.91
2023-01-01T22:14:48.234Z,101502.94
2023-01-01T22:17:37.055Z,101499.16
2023-01-01T22:20:23.799Z,101491.97
2023-01-01T22:22:50.362Z,101492.53
2023-01-01T22:25:31.250Z,101502.19
2023-01-01T22:28:05.163Z,101489.88
2023-01-01T22:30:40.532Z,101486.50
2023-01-01T22:33:37.448Z,101489.13
2023-01-01T22:36:13.655Z,101498.75
2023-01-01T22:38:41.106Z,101489.28
2023-01-01T22:41:08.600Z,101496.28
2023-01-01T22:43:47.528Z,101486.34
2023-01-01T22:46:20.734Z,101480.50
2023-01-01T22:48:49.959Z,101482.44
2023-01-01T22:51:24.708Z,101484.38
2023-01-01T22:53:51.320Z,101490.59
2023-01-01T22:56:17.951Z,101479.19
2023-01-01T22:58:51.635Z,101475.53
2023-01-01T23:01:21.639Z,101462.34
2023-01-01T23:03:48.286Z,101471.78
2023-01-01T23:06:14.992Z,101460.50
2023-01-01T23:08:41.719Z,101437.75
2023-01-01T23:11:08.551Z,101439.59
2023-01-01T23:13:53.716Z,101431.00
2023-01-01T23:16:26.092Z,101430.31
2023-01-01T23:18:52.797Z,101430.44
2023-01-01T23:21:26.808Z,101423.50
2023-01-01T23:23:56.815Z,101420.94
2023-01-01T23:26:24.993Z,101417.56
2023-01-01T23:28:55.408Z,101414.16
2023-01-01T23:31:25.557Z,101411.69
2023-01-01T23:33:54.012Z,101414.41
2023-01-01T23:36:23.490Z,101403.19
2023-01-01T23:38:50.339Z,101412.03
2023-01-01T23:41:17.018Z,101398.16
2023-01-01T23:43:44.301Z,101406.16
2023-01-01T23:46:12.872Z,101390.47
2023-01-01T23:48:40.803Z,101404.41
2023-01-01T23:51:07.737Z,101403.44
2023-01-01T23:53:34.397Z,101391.28
2023-01-01T23:56:01.393Z,101392.16
2023-01-01T23:58:28.071Z,101382.50
